sensor_id;sensor_type;location;lat;lon;timestamp;pressure;altitude;pressure_sealevel;temperature;humidity
36454;BME280;22478;51.740;-1.314;2023-07-08T00:02:09;99941.85;;;15.78;77.77
36454;BME280;22478;51.740;-1.314;2023-07-08T00:04:37;99936.84;;;16.95;75.17
36454;BME280;22478;51.740;-1.314;2023-07-08T00:07:05;99939.19;;;15.45;77.11
36454;BME280;22478;51.740;-1.314;2023-07-08T00:09:33;99937.04;;;17.03;74.47
36454;BME280;22478;51.740;-1.314;2023-07-08T00:12:00;99930.76;;;17.71;72.45
36454;BME280;22478;51.740;-1.314;2023-07-08T00:14:27;99931.34;;;16.75;72.29
36454;BME280;22478;51.740;-1.314;2023-07-08T00:16:54;99933.15;;;17.11;72.76
36454;BME280;22478;51.740;-1.314;2023-07-08T00:19:22;99934.42;;;16.81;74.78
36454;BME280;22478;51.740;-1.314;2023-07-08T00:21:50;99935.08;;;16.26;77.05
36454;BME280;22478;51.740;-1.314;2023-07-08T00:24:17;99932.28;;;17.19;74.20
36454;BME280;22478;51.740;-1.314;2023-07-08T00:26:44;99927.01;;;16.18;77.03
36454;BME280;22478;51.740;-1.314;2023-07-08T00:29:12;99928.05;;;16.71;77.45
36454;BME280;22478;51.740;-1.314;2023-07-08T00:31:40;99927.32;;;16.25;79.41
36454;BME280;22478;51.740;-1.314;2023-07-08T00:34:07;99922.62;;;16.57;79.86
36454;BME280;22478;51.740;-1.314;2023-07-08T00:36:35;99921.71;;;15.79;81.54
36454;BME280;22478;51.740;-1.314;2023-07-08T00:39:02;99919.36;;;15.69;81.70
36454;BME280;22478;51.740;-1.314;2023-07-08T00:41:32;99921.03;;;15.38;85.62
36454;BME280;22478;51.740;-1.314;2023-07-08T00:44:01;99910.70;;;16.25;82.34
36454;BME280;22478;51.740;-1.314;2023-07-08T00:46:33;99903.03;;;16.00;83.82
36454;BME280;22478;51.740;-1.314;2023-07-08T00:49:17;99899.45;;;15.24;85.41
36454;BME280;22478;51.740;-1.314;2023-07-08T00:51:48;99897.64;;;15.79;83.07
36454;BME280;22478;51.740;-1.314;2023-07-08T00:54:18;99896.93;;;15.75;85.82
36454;BME280;22478;51.740;-1.314;2023-07-08T00:56:49;99894.24;;;15.34;86.45
36454;BME280;22478;51.740;-1.314;2023-07-08T00:59:22;99896.81;;;15.34;88.18
36454;BME280;22478;51.740;-1.314;2023-07-08T01:01:51;99886.80;;;16.44;82.68
36454;BME280;22478;51.740;-1.314;2023-07-08T01:04:23;99880.86;;;15.54;84.15
36454;BME280;22478;51.740;-1.314;2023-07-08T01:06:54;99877.75;;;14.99;86.78
36454;BME280;22478;51.740;-1.314;2023-07-08T01:09:25;99875.52;;;15.46;87.14
36454;BME280;22478;51.740;-1.314;2023-07-08T01:11:54;99872.16;;;16.18;84.00
36454;BME280;22478;51.740;-1.314;2023-07-08T01:14:26;99869.26;;;16.47;82.23
36454;BME280;22478;51.740;-1.314;2023-07-08T01:16:54;99874.78;;;16.44;84.22
36454;BME280;22478;51.740;-1.314;2023-07-08T01:19:21;99879.10;;;15.88;87.50
36454;BME280;22478;51.740;-1.314;2023-07-08T01:21:58;99881.86;;;15.59;88.57
36454;BME280;22478;51.740;-1.314;2023-07-08T01:24:26;99888.95;;;15.68;93.19
36454;BME280;22478;51.740;-1.314;2023-07-08T01:26:54;99892.21;;;15.41;93.25
36454;BME280;22478;51.740;-1.314;2023-07-08T01:29:22;99890.94;;;16.11;92.05
36454;BME280;22478;51.740;-1.314;2023-07-08T01:31:50;99885.94;;;16.03;90.67
36454;BME280;22478;51.740;-1.314;2023-07-08T01:34:18;99884.84;;;15.84;93.89
36454;BME280;22478;51.740;-1.314;2023-07-08T01:36:49;99886.66;;;15.48;94.17
36454;BME280;22478;51.740;-1.314;2023-07-08T01:39:20;99890.65;;;14.96;96.30
36454;BME280;22478;51.740;-1.314;2023-07-08T01:41:50;99882.00;;;15.56;96.74
36454;BME280;22478;51.740;-1.314;2023-07-08T01:44:28;99885.67;;;14.67;99.40
36454;BME280;22478;51.740;-1.314;2023-07-08T01:46:59;99878.53;;;15.05;98.60
36454;BME280;22478;51.740;-1.314;2023-07-08T01:49:27;99885.90;;;14.28;100.00
36454;BME280;22478;51.740;-1.314;2023-07-08T01:51:55;99892.75;;;14.45;100.00
36454;BME280;22478;51.740;-1.314;2023-07-08T01:54:23;99887.54;;;15.51;100.00
36454;BME280;22478;51.740;-1.314;2023-07-08T01:56:54;99890.53;;;15.03;99.30
36454;BME280;22478;51.740;-1.314;2023-07-08T01:59:22;99876.67;;;15.44;97.89
36454;BME280;22478;51.740;-1.314;2023-07-08T02:01:49;99862.60;;;16.21;96.97
36454;BME280;22478;51.740;-1.314;2023-07-08T02:04:17;99859.62;;;15.06;99.68
36454;BME280;22478;51.740;-1.314;2023-07-08T02:06:51;99852.73;;;15.28;99.23
36454;BME280;22478;51.740;-1.314;2023-07-08T02:09:18;99844.80;;;15.15;99.83
36454;BME280;22478;51.740;-1.314;2023-07-08T02:11:45;99836.78;;;15.96;96.68
36454;BME280;22478;51.740;-1.314;2023-07-08T02:14:12;99831.21;;;15.39;96.51
36454;BME280;22478;51.740;-1.314;2023-07-08T02:16:39;99826.40;;;15.78;97.44
36454;BME280;22478;51.740;-1.314;2023-07-08T02:19:06;99817.70;;;16.90;92.88
36454;BME280;22478;51.740;-1.314;2023-07-08T02:21:33;99820.90;;;15.53;97.75
36454;BME280;22478;51.740;-1.314;2023-07-08T02:24:00;99813.07;;;15.24;100.00
36454;BME280;22478;51.740;-1.314;2023-07-08T02:26:28;99806.52;;;14.91;100.00
36454;BME280;22478;51.740;-1.314;2023-07-08T02:28:55;99809.61;;;15.59;100.00
36454;BME280;22478;51.740;-1.314;2023-07-08T02:31:22;99824.84;;;14.85;100.00
36454;BME280;22478;51.740;-1.314;2023-07-08T02:33:50;99830.15;;;15.23;100.00
36454;BME280;22478;51.740;-1.314;2023-07-08T02:36:17;99845.38;;;15.58;100.00
36454;BME280;22478;51.740;-1.314;2023-07-08T02:38:44;99827.85;;;16.00;100.00
36454;BME280;22478;51.740;-1.314;2023-07-08T02:41:10;99825.70;;;15.75;100.00
36454;BME280;22478;51.740;-1.314;2023-07-08T02:43:38;99825.43;;;16.00;98.61
36454;BME280;22478;51.740;-1.314;2023-07-08T02:46:06;99828.97;;;16.24;100.00
36454;BME280;22478;51.740;-1.314;2023-07-08T02:48:33;99823.50;;;15.42;100.00
36454;BME280;22478;51.740;-1.314;2023-07-08T02:51:01;99821.86;;;15.46;100.00
36454;BME280;22478;51.740;-1.314;2023-07-08T02:53:29;99827.68;;;16.65;100.00
36454;BME280;22478;51.740;-1.314;2023-07-08T02:55:56;99821.54;;;15.99;100.00
36454;BME280;22478;51.740;-1.314;2023-07-08T02:58:24;99819.79;;;16.24;100.00
36454;BME280;22478;51.740;-1.314;2023-07-08T03:00:52;99832.88;;;16.20;100.00
36454;BME280;22478;51.740;-1.314;2023-07-08T03:03:19;99833.37;;;15.95;100.00
36454;BME280;22478;51.740;-1.314;2023-07-08T03:05:54;99833.91;;;16.57;100.00
36454;BME280;22478;51.740;-1.314;2023-07-08T03:08:21;99833.93;;;15.39;100.00
36454;BME280;22478;51.740;-1.314;2023-07-08T03:10:54;99839.69;;;15.55;100.00
36454;BME280;22478;51.740;-1.314;2023-07-08T03:13:22;99842.27;;;16.01;100.00
36454;BME280;22478;51.740;-1.314;2023-07-08T03:15:50;99842.46;;;16.04;100.00
36454;BME280;22478;51.740;-1.314;2023-07-08T03:18:17;99842.15;;;16.35;100.00
36454;BME280;22478;51.740;-1.314;2023-07-08T03:20:44;99846.65;;;15.47;100.00
36454;BME280;22478;51.740;-1.314;2023-07-08T03:23:14;99850.16;;;16.55;100.00
36454;BME280;22478;51.740;-1.314;2023-07-08T03:25:41;99848.93;;;15.82;100.00
36454;BME280;22478;51.740;-1.314;2023-07-08T03:28:09;99844.51;;;16.22;100.00
36454;BME280;22478;51.740;-1.314;2023-07-08T03:30:36;99846.03;;;15.12;100.00
36454;BME280;22478;51.740;-1.314;2023-07-08T03:33:03;99845.38;;;15.64;100.00
36454;BME280;22478;51.740;-1.314;2023-07-08T03:35:30;99834.87;;;16.18;100.00
36454;BME280;22478;51.740;-1.314;2023-07-08T03:37:57;99833.52;;;15.62;100.00
36454;BME280;22478;51.740;-1.314;2023-07-08T03:40:24;99825.90;;;15.60;100.00
36454;BME280;22478;51.740;-1.314;2023-07-08T03:42:51;99828.53;;;16.47;100.00
36454;BME280;22478;51.740;-1.314;2023-07-08T03:45:18;99835.64;;;16.43;100.00
36454;BME280;22478;51.740;-1.314;2023-07-08T03:47:46;99836.63;;;16.13;100.00
36454;BME280;22478;51.740;-1.314;2023-07-08T03:50:18;99840.83;;;15.57;100.00
36454;BME280;22478;51.740;-1.314;2023-07-08T03:52:46;99841.51;;;16.47;100.00
36454;BME280;22478;51.740;-1.314;2023-07-08T03:55:14;99855.11;;;15.97;100.00
36454;BME280;22478;51.740;-1.314;2023-07-08T03:57:41;99854.67;;;15.78;100.00
36454;BME280;22478;51.740;-1.314;2023-07-08T04:00:10;99844.50;;;15.84;100.00
36454;BME280;22478;51.740;-1.314;2023-07-08T04:02:38;99846.09;;;15.23;100.00
36454;BME280;22478;51.740;-1.314;2023-07-08T04:05:06;99852.73;;;15.83;100.00
36454;BME280;22478;51.740;-1.314;2023-07-08T04:07:34;99857.40;;;15.62;100.00
36454;BME280;22478;51.740;-1.314;2023-07-08T04:10:01;99850.55;;;15.31;100.00
36454;BME280;22478;51.740;-1.314;2023-07-08T04:12:28;99852.83;;;15.77;100.00
36454;BME280;22478;51.740;-1.314;2023-07-08T04:14:55;99854.58;;;15.19;100.00
36454;BME280;22478;51.740;-1.314;2023-07-08T04:17:23;99859.74;;;15.22;100.00
36454;BME280;22478;51.740;-1.314;2023-07-08T04:19:50;99861.18;;;15.62;100.00
36454;BME280;22478;51.740;-1.314;2023-07-08T04:22:18;99865.55;;;16.03;100.00
36454;BME280;22478;51.740;-1.314;2023-07-08T04:24:45;99881.15;;;15.48;100.00
36454;BME280;22478;51.740;-1.314;2023-07-08T04:27:13;99876.17;;;15.19;100.00
36454;BME280;22478;51.740;-1.314;2023-07-08T04:29:41;99870.56;;;15.41;100.00
36454;BME280;22478;51.740;-1.314;2023-07-08T04:32:09;99864.45;;;15.57;100.00
36454;BME280;22478;51.740;-1.314;2023-07-08T04:34:36;99863.29;;;15.72;100.00
36454;BME280;22478;51.740;-1.314;2023-07-08T04:37:03;99867.09;;;15.87;100.00
36454;BME280;22478;51.740;-1.314;2023-07-08T04:39:31;99870.02;;;14.68;100.00
36454;BME280;22478;51.740;-1.314;2023-07-08T04:41:58;99872.90;;;15.23;100.00
36454;BME280;22478;51.740;-1.314;2023-07-08T04:44:25;99874.85;;;15.77;100.00
36454;BME280;22478;51.740;-1.314;2023-07-08T04:46:55;99874.72;;;15.35;100.00
36454;BME280;22478;51.740;-1.314;2023-07-08T04:49:24;99891.67;;;15.75;100.00
36454;BME280;22478;51.740;-1.314;2023-07-08T04:51:52;99888.17;;;15.85;100.00
36454;BME280;22478;51.740;-1.314;2023-07-08T04:54:19;99890.31;;;17.29;95.96
36454;BME280;22478;51.740;-1.314;2023-07-08T04:56:48;99892.65;;;17.10;90.37
36454;BME280;22478;51.740;-1.314;2023-07-08T04:59:17;99887.81;;;17.39;90.16
36454;BME280;22478;51.740;-1.314;2023-07-08T05:01:45;99886.41;;;17.51;94.39
36454;BME280;22478;51.740;-1.314;2023-07-08T05:04:15;99894.06;;;17.36;94.38
36454;BME280;22478;51.740;-1.314;2023-07-08T05:06:42;99896.29;;;17.68;93.01
36454;BME280;22478;51.740;-1.314;2023-07-08T05:09:10;99905.63;;;16.84;93.78
36454;BME280;22478;51.740;-1.314;2023-07-08T05:11:38;99909.71;;;17.40;90.96
36454;BME280;22478;51.740;-1.314;2023-07-08T05:14:06;99908.47;;;17.29;95.21
36454;BME280;22478;51.740;-1.314;2023-07-08T05:16:34;99921.20;;;16.78;96.25
36454;BME280;22478;51.740;-1.314;2023-07-08T05:19:01;99920.25;;;18.12;94.10
36454;BME280;22478;51.740;-1.314;2023-07-08T05:21:30;99923.16;;;18.12;89.33
36454;BME280;22478;51.740;-1.314;2023-07-08T05:23:57;99929.60;;;17.04;92.50
36454;BME280;22478;51.740;-1.314;2023-07-08T05:26:24;99928.71;;;18.27;88.53
36454;BME280;22478;51.740;-1.314;2023-07-08T05:28:51;99928.34;;;17.51;89.61
36454;BME280;22478;51.740;-1.314;2023-07-08T05:31:18;99936.46;;;18.44;88.07
36454;BME280;22478;51.740;-1.314;2023-07-08T05:33:45;99940.14;;;19.16;84.15
36454;BME280;22478;51.740;-1.314;2023-07-08T05:36:12;99947.92;;;20.34;80.21
36454;BME280;22478;51.740;-1.314;2023-07-08T05:38:38;99946.05;;;20.60;79.37
36454;BME280;22478;51.740;-1.314;2023-07-08T05:41:06;99946.60;;;19.36;81.81
36454;BME280;22478;51.740;-1.314;2023-07-08T05:43:33;99950.22;;;19.25;81.50
36454;BME280;22478;51.740;-1.314;2023-07-08T05:46:01;99952.94;;;19.55;81.89
36454;BME280;22478;51.740;-1.314;2023-07-08T05:48:29;99953.07;;;20.09;81.45
36454;BME280;22478;51.740;-1.314;2023-07-08T05:50:56;99963.66;;;18.32;85.36
36454;BME280;22478;51.740;-1.314;2023-07-08T05:53:24;99964.34;;;19.07;83.60
36454;BME280;22478;51.740;-1.314;2023-07-08T05:55:51;99966.02;;;17.70;88.36
36454;BME280;22478;51.740;-1.314;2023-07-08T05:58:19;99967.81;;;19.23;85.59
36454;BME280;22478;51.740;-1.314;2023-07-08T06:00:46;99967.54;;;19.10;86.65
36454;BME280;22478;51.740;-1.314;2023-07-08T06:03:13;99969.65;;;19.45;87.28
36454;BME280;22478;51.740;-1.314;2023-07-08T06:05:40;99968.38;;;18.74;87.85
36454;BME280;22478;51.740;-1.314;2023-07-08T06:08:09;99968.48;;;19.89;83.38
36454;BME280;22478;51.740;-1.314;2023-07-08T06:10:41;99975.11;;;20.23;83.11
36454;BME280;22478;51.740;-1.314;2023-07-08T06:13:09;99992.07;;;19.17;83.19
36454;BME280;22478;51.740;-1.314;2023-07-08T06:15:36;99999.42;;;19.55;86.90
36454;BME280;22478;51.740;-1.314;2023-07-08T06:18:03;99998.84;;;18.21;87.41
36454;BME280;22478;51.740;-1.314;2023-07-08T06:20:30;99988.34;;;20.88;85.86
36454;BME280;22478;51.740;-1.314;2023-07-08T06:22:57;99987.88;;;20.69;85.52
36454;BME280;22478;51.740;-1.314;2023-07-08T06:25:24;99994.38;;;19.22;86.71
36454;BME280;22478;51.740;-1.314;2023-07-08T06:27:50;99988.96;;;19.86;86.41
36454;BME280;22478;51.740;-1.314;2023-07-08T06:30:18;99983.19;;;19.40;87.82
36454;BME280;22478;51.740;-1.314;2023-07-08T06:32:45;99977.16;;;20.87;85.69
36454;BME280;22478;51.740;-1.314;2023-07-08T06:35:13;99971.57;;;21.34;82.00
36454;BME280;22478;51.740;-1.314;2023-07-08T06:37:39;99981.41;;;21.07;83.61
36454;BME280;22478;51.740;-1.314;2023-07-08T06:40:08;99987.60;;;21.56;81.42
36454;BME280;22478;51.740;-1.314;2023-07-08T06:42:35;99989.89;;;21.62;79.51
36454;BME280;22478;51.740;-1.314;2023-07-08T06:45:03;99994.37;;;21.13;82.12
36454;BME280;22478;51.740;-1.314;2023-07-08T06:47:30;99999.27;;;20.08;85.76
36454;BME280;22478;51.740;-1.314;2023-07-08T06:49:58;99997.84;;;20.58;83.68
36454;BME280;22478;51.740;-1.314;2023-07-08T06:52:25;99995.44;;;21.51;84.83
36454;BME280;22478;51.740;-1.314;2023-07-08T06:54:52;99991.25;;;21.25;78.99
36454;BME280;22478;51.740;-1.314;2023-07-08T06:57:19;99990.75;;;22.48;76.04
36454;BME280;22478;51.740;-1.314;2023-07-08T06:59:46;99991.70;;;22.36;75.60
36454;BME280;22478;51.740;-1.314;2023-07-08T07:02:13;99995.59;;;22.97;73.13
36454;BME280;22478;51.740;-1.314;2023-07-08T07:04:40;100004.43;;;23.02;71.93
36454;BME280;22478;51.740;-1.314;2023-07-08T07:07:08;100010.98;;;21.39;75.75
36454;BME280;22478;51.740;-1.314;2023-07-08T07:09:35;100006.36;;;23.12;71.22
36454;BME280;22478;51.740;-1.314;2023-07-08T07:12:04;100011.00;;;21.70;75.14
36454;BME280;22478;51.740;-1.314;2023-07-08T07:14:33;100004.24;;;23.06;71.45
36454;BME280;22478;51.740;-1.314;2023-07-08T07:17:00;100006.12;;;23.14;72.21
36454;BME280;22478;51.740;-1.314;2023-07-08T07:19:28;100012.76;;;22.80;71.78
36454;BME280;22478;51.740;-1.314;2023-07-08T07:21:55;100012.76;;;22.93;71.43
36454;BME280;22478;51.740;-1.314;2023-07-08T07:24:22;100024.17;;;24.04;66.38
36454;BME280;22478;51.740;-1.314;2023-07-08T07:26:50;100039.47;;;23.69;68.44
36454;BME280;22478;51.740;-1.314;2023-07-08T07:29:18;100052.53;;;22.61;67.95
36454;BME280;22478;51.740;-1.314;2023-07-08T07:31:47;100051.62;;;23.58;68.16
36454;BME280;22478;51.740;-1.314;2023-07-08T07:34:14;100047.17;;;24.66;64.50
36454;BME280;22478;51.740;-1.314;2023-07-08T07:36:42;100043.94;;;23.74;64.89
36454;BME280;22478;51.740;-1.314;2023-07-08T07:39:10;100048.75;;;23.94;65.20
36454;BME280;22478;51.740;-1.314;2023-07-08T07:41:37;100053.09;;;23.88;65.85
36454;BME280;22478;51.740;-1.314;2023-07-08T07:44:04;100053.94;;;24.80;64.98
36454;BME280;22478;51.740;-1.314;2023-07-08T07:46:32;100049.13;;;23.79;70.50
36454;BME280;22478;51.740;-1.314;2023-07-08T07:48:58;100039.19;;;24.12;73.70
36454;BME280;22478;51.740;-1.314;2023-07-08T07:51:26;100030.64;;;23.95;78.83
36454;BME280;22478;51.740;-1.314;2023-07-08T07:53:53;100027.10;;;23.38;74.41
36454;BME280;22478;51.740;-1.314;2023-07-08T07:56:20;100034.93;;;23.80;74.80
36454;BME280;22478;51.740;-1.314;2023-07-08T07:58:48;100052.40;;;23.56;71.80
36454;BME280;22478;51.740;-1.314;2023-07-08T08:01:15;100060.90;;;23.52;69.98
36454;BME280;22478;51.740;-1.314;2023-07-08T08:03:42;100078.86;;;23.95;68.62
36454;BME280;22478;51.740;-1.314;2023-07-08T08:06:09;100085.19;;;23.87;66.96
36454;BME280;22478;51.740;-1.314;2023-07-08T08:08:35;100095.47;;;24.61;65.36
36454;BME280;22478;51.740;-1.314;2023-07-08T08:11:02;100097.18;;;24.05;65.97
36454;BME280;22478;51.740;-1.314;2023-07-08T08:13:29;100116.55;;;24.28;64.64
36454;BME280;22478;51.740;-1.314;2023-07-08T08:15:57;100125.48;;;23.02;69.11
36454;BME280;22478;51.740;-1.314;2023-07-08T08:18:25;100126.62;;;23.20;67.78
36454;BME280;22478;51.740;-1.314;2023-07-08T08:20:52;100134.87;;;22.51;71.99
36454;BME280;22478;51.740;-1.314;2023-07-08T08:23:20;100146.33;;;22.57;72.18
36454;BME280;22478;51.740;-1.314;2023-07-08T08:25:48;100154.18;;;23.31;69.01
36454;BME280;22478;51.740;-1.314;2023-07-08T08:28:16;100152.04;;;23.37;68.16
36454;BME280;22478;51.740;-1.314;2023-07-08T08:30:47;100144.82;;;23.36;68.35
36454;BME280;22478;51.740;-1.314;2023-07-08T08:33:14;100129.01;;;23.51;68.73
36454;BME280;22478;51.740;-1.314;2023-07-08T08:35:42;100125.37;;;23.92;67.70
36454;BME280;22478;51.740;-1.314;2023-07-08T08:38:09;100125.23;;;23.09;71.71
36454;BME280;22478;51.740;-1.314;2023-07-08T08:40:39;100120.67;;;23.26;73.85
36454;BME280;22478;51.740;-1.314;2023-07-08T08:43:10;100127.40;;;21.62;78.84
36454;BME280;22478;51.740;-1.314;2023-07-08T08:45:44;100140.23;;;24.17;70.16
36454;BME280;22478;51.740;-1.314;2023-07-08T08:48:18;100149.36;;;24.35;66.17
36454;BME280;22478;51.740;-1.314;2023-07-08T08:50:51;100139.03;;;23.64;67.19
36454;BME280;22478;51.740;-1.314;2023-07-08T08:53:20;100140.44;;;25.43;64.51
36454;BME280;22478;51.740;-1.314;2023-07-08T08:55:57;100147.79;;;24.57;66.02
36454;BME280;22478;51.740;-1.314;2023-07-08T08:58:33;100165.33;;;24.87;63.29
36454;BME280;22478;51.740;-1.314;2023-07-08T09:01:07;100173.46;;;23.71;65.92
36454;BME280;22478;51.740;-1.314;2023-07-08T09:03:42;100165.79;;;24.46;67.31
36454;BME280;22478;51.740;-1.314;2023-07-08T09:06:13;100157.27;;;23.20;70.21
36454;BME280;22478;51.740;-1.314;2023-07-08T09:08:40;100156.41;;;24.21;69.61
36454;BME280;22478;51.740;-1.314;2023-07-08T09:11:21;100146.93;;;24.34;67.15
36454;BME280;22478;51.740;-1.314;2023-07-08T09:13:51;100140.75;;;25.05;64.76
36454;BME280;22478;51.740;-1.314;2023-07-08T09:16:25;100136.19;;;24.16;68.00
36454;BME280;22478;51.740;-1.314;2023-07-08T09:18:58;100131.13;;;24.11;67.08
36454;BME280;22478;51.740;-1.314;2023-07-08T09:21:30;100126.75;;;25.24;64.33
36454;BME280;22478;51.740;-1.314;2023-07-08T09:24:02;100122.43;;;24.95;65.15
36454;BME280;22478;51.740;-1.314;2023-07-08T09:26:33;100126.71;;;22.04;71.55
36454;BME280;22478;51.740;-1.314;2023-07-08T09:29:00;100132.67;;;21.92;73.60
36454;BME280;22478;51.740;-1.314;2023-07-08T09:31:28;100131.89;;;23.87;66.56
36454;BME280;22478;51.740;-1.314;2023-07-08T09:34:06;100137.32;;;24.47;66.87
36454;BME280;22478;51.740;-1.314;2023-07-08T09:36:39;100152.03;;;20.89;79.46
36454;BME280;22478;51.740;-1.314;2023-07-08T09:39:10;100152.03;;;22.32;75.43
36454;BME280;22478;51.740;-1.314;2023-07-08T09:41:39;100150.78;;;24.08;70.68
36454;BME280;22478;51.740;-1.314;2023-07-08T09:44:14;100154.55;;;24.28;67.93
36454;BME280;22478;51.740;-1.314;2023-07-08T09:46:43;100157.51;;;24.07;70.63
36454;BME280;22478;51.740;-1.314;2023-07-08T09:49:22;100168.30;;;22.41;76.59
36454;BME280;22478;51.740;-1.314;2023-07-08T09:51:51;100165.77;;;23.04;74.44
36454;BME280;22478;51.740;-1.314;2023-07-08T09:54:19;100171.98;;;23.35;72.95
36454;BME280;22478;51.740;-1.314;2023-07-08T09:56:55;100191.25;;;23.37;73.00
36454;BME280;22478;51.740;-1.314;2023-07-08T09:59:29;100205.23;;;24.52;70.39
36454;BME280;22478;51.740;-1.314;2023-07-08T10:02:00;100210.90;;;23.35;73.43
36454;BME280;22478;51.740;-1.314;2023-07-08T10:04:28;100188.16;;;22.61;81.69
36454;BME280;22478;51.740;-1.314;2023-07-08T10:06:55;100184.40;;;22.34;88.46
36454;BME280;22478;51.740;-1.314;2023-07-08T10:09:24;100174.00;;;23.67;84.06
36454;BME280;22478;51.740;-1.314;2023-07-08T10:11:58;100173.10;;;22.10;88.24
36454;BME280;22478;51.740;-1.314;2023-07-08T10:14:31;100185.07;;;22.94;86.43
36454;BME280;22478;51.740;-1.314;2023-07-08T10:17:00;100195.97;;;22.56;88.86
36454;BME280;22478;51.740;-1.314;2023-07-08T10:19:28;100199.34;;;21.70;95.74
36454;BME280;22478;51.740;-1.314;2023-07-08T10:22:07;100198.35;;;21.88;96.24
36454;BME280;22478;51.740;-1.314;2023-07-08T10:24:49;100208.36;;;21.34;99.09
36454;BME280;22478;51.740;-1.314;2023-07-08T10:27:24;100218.16;;;18.49;100.00
36454;BME280;22478;51.740;-1.314;2023-07-08T10:30:02;100236.39;;;19.35;100.00
36454;BME280;22478;51.740;-1.314;2023-07-08T10:32:44;100230.17;;;18.20;100.00
36454;BME280;22478;51.740;-1.314;2023-07-08T10:35:18;100230.02;;;18.42;100.00
36454;BME280;22478;51.740;-1.314;2023-07-08T10:38:09;100249.39;;;16.97;100.00
36454;BME280;22478;51.740;-1.314;2023-07-08T10:40:48;100255.15;;;17.05;100.00
36454;BME280;22478;51.740;-1.314;2023-07-08T10:43:28;100271.27;;;15.78;100.00
36454;BME280;22478;51.740;-1.314;2023-07-08T10:46:05;100265.98;;;15.91;100.00
36454;BME280;22478;51.740;-1.314;2023-07-08T10:48:50;100263.94;;;14.88;100.00
36454;BME280;22478;51.740;-1.314;2023-07-08T10:51:29;100260.15;;;15.02;100.00
36454;BME280;22478;51.740;-1.314;2023-07-08T10:54:14;100250.47;;;15.45;100.00
36454;BME280;22478;51.740;-1.314;2023-07-08T10:56:51;100253.96;;;14.47;100.00
36454;BME280;22478;51.740;-1.314;2023-07-08T10:59:36;100260.80;;;14.24;100.00
36454;BME280;22478;51.740;-1.314;2023-07-08T11:02:21;100262.36;;;13.49;100.00
36454;BME280;22478;51.740;-1.314;2023-07-08T11:04:59;100256.20;;;13.91;100.00
36454;BME280;22478;51.740;-1.314;2023-07-08T11:07:36;100269.97;;;14.35;100.00
36454;BME280;22478;51.740;-1.314;2023-07-08T11:10:13;100268.71;;;14.02;100.00
36454;BME280;22478;51.740;-1.314;2023-07-08T11:12:45;100284.09;;;14.29;100.00
36454;BME280;22478;51.740;-1.314;2023-07-08T11:15:17;100278.37;;;14.54;100.00
36454;BME280;22478;51.740;-1.314;2023-07-08T11:17:51;100273.56;;;14.53;100.00
36454;BME280;22478;51.740;-1.314;2023-07-08T11:20:25;100273.31;;;14.20;100.00
36454;BME280;22478;51.740;-1.314;2023-07-08T11:22:58;100267.30;;;13.67;100.00
36454;BME280;22478;51.740;-1.314;2023-07-08T11:25:28;100267.85;;;13.15;100.00
36454;BME280;22478;51.740;-1.314;2023-07-08T11:27:59;100253.29;;;14.88;100.00
36454;BME280;22478;51.740;-1.314;2023-07-08T11:30:30;100239.98;;;16.00;100.00
36454;BME280;22478;51.740;-1.314;2023-07-08T11:33:03;100238.30;;;14.17;100.00
36454;BME280;22478;51.740;-1.314;2023-07-08T11:35:37;100224.44;;;15.28;100.00
36454;BME280;22478;51.740;-1.314;2023-07-08T11:38:11;100220.91;;;15.75;100.00
36454;BME280;22478;51.740;-1.314;2023-07-08T11:40:52;100217.10;;;15.63;100.00
36454;BME280;22478;51.740;-1.314;2023-07-08T11:43:21;100208.98;;;15.77;100.00
36454;BME280;22478;51.740;-1.314;2023-07-08T11:45:50;100210.49;;;15.67;100.00
36454;BME280;22478;51.740;-1.314;2023-07-08T11:48:24;100203.70;;;15.44;100.00
36454;BME280;22478;51.740;-1.314;2023-07-08T11:50:53;100190.87;;;15.35;100.00
36454;BME280;22478;51.740;-1.314;2023-07-08T11:53:46;100188.78;;;16.49;100.00
36454;BME280;22478;51.740;-1.314;2023-07-08T11:56:23;100181.38;;;15.77;100.00
36454;BME280;22478;51.740;-1.314;2023-07-08T11:59:03;100178.47;;;15.02;100.00
36454;BME280;22478;51.740;-1.314;2023-07-08T12:01:38;100176.79;;;15.16;100.00
36454;BME280;22478;51.740;-1.314;2023-07-08T12:04:55;100176.97;;;14.70;100.00
36454;BME280;22478;51.740;-1.314;2023-07-08T12:07:31;100179.12;;;14.48;100.00
36454;BME280;22478;51.740;-1.314;2023-07-08T12:10:04;100181.51;;;16.27;100.00
36454;BME280;22478;51.740;-1.314;2023-07-08T12:12:35;100183.88;;;17.28;100.00
36454;BME280;22478;51.740;-1.314;2023-07-08T12:15:15;100193.39;;;17.94;100.00
36454;BME280;22478;51.740;-1.314;2023-07-08T12:17:44;100207.57;;;18.70;100.00
36454;BME280;22478;51.740;-1.314;2023-07-08T12:20:17;100230.73;;;16.85;100.00
36454;BME280;22478;51.740;-1.314;2023-07-08T12:22:45;100236.06;;;17.62;100.00
36454;BME280;22478;51.740;-1.314;2023-07-08T12:25:14;100239.23;;;18.73;100.00
36454;BME280;22478;51.740;-1.314;2023-07-08T12:27:42;100244.68;;;18.53;100.00
36454;BME280;22478;51.740;-1.314;2023-07-08T12:30:10;100249.02;;;18.18;100.00
36454;BME280;22478;51.740;-1.314;2023-07-08T12:32:39;100254.23;;;19.23;100.00
36454;BME280;22478;51.740;-1.314;2023-07-08T12:35:17;100255.29;;;20.24;100.00
36454;BME280;22478;51.740;-1.314;2023-07-08T12:37:46;100266.91;;;19.56;100.00
36454;BME280;22478;51.740;-1.314;2023-07-08T12:40:14;100271.03;;;19.97;100.00
36454;BME280;22478;51.740;-1.314;2023-07-08T12:42:42;100274.34;;;20.07;100.00
36454;BME280;22478;51.740;-1.314;2023-07-08T12:45:14;100280.60;;;20.07;100.00
36454;BME280;22478;51.740;-1.314;2023-07-08T12:47:43;100281.64;;;20.08;100.00
36454;BME280;22478;51.740;-1.314;2023-07-08T12:50:11;100291.37;;;18.78;100.00
36454;BME280;22478;51.740;-1.314;2023-07-08T12:52:39;100303.20;;;19.65;100.00
36454;BME280;22478;51.740;-1.314;2023-07-08T12:55:09;100306.73;;;20.26;100.00